Time;durP1;ratioP1;P1;durP2;ratioP2;P2;SDS_P1;SDS_P2;PMS_P1;PMS_P2;Temp;Humidity;BMP_temperature;BMP_pressure;BME280_temperature;BME280_humidity;BME280_pressure;Samples;Min_cycle;Max_cycle;Signal;HPM_P1;HPM_P2
2022/03/31 00:00:18;;;;;;;14.68;9.57;;;5.30;99.90;;;;;;5045652;28;20036;-76
2022/03/31 00:03:07;;;;;;;;;;;5.30;99.90;;;;;;5060518;28;20086;-78
2022/03/31 00:05:51;;;;;;;15.45;10.60;;;5.20;99.90;;;;;;5058884;28;19927;-78
2022/03/31 00:08:35;;;;;;;15.32;11.05;;;5.30;99.90;;;;;;5058923;28;20028;-78
2022/03/31 00:11:19;;;;;;;19.20;10.77;;;5.20;99.90;;;;;;5044366;28;20027;-78
2022/03/31 00:14:04;;;;;;;12.73;9.50;;;5.10;99.90;;;;;;5023800;28;20129;-77
2022/03/31 00:16:48;;;;;;;14.07;11.00;;;5.20;99.90;;;;;;5024189;28;20143;-78
2022/03/31 00:19:32;;;;;;;16.02;10.50;;;5.20;99.90;;;;;;5019064;28;20098;-79
2022/03/31 00:22:16;;;;;;;15.20;10.05;;;5.20;99.90;;;;;;5067277;28;20042;-79
2022/03/31 00:25:01;;;;;;;13.70;10.95;;;5.20;99.90;;;;;;5011626;28;20064;-77
2022/03/31 00:27:46;;;;;;;16.80;10.48;;;5.10;99.90;;;;;;5048485;28;20074;-79
2022/03/31 00:30:30;;;;;;;18.25;10.45;;;5.00;99.90;;;;;;5045830;28;20040;-78
2022/03/31 00:33:15;;;;;;;;;;;5.00;99.90;;;;;;5032940;28;20455;-78
2022/03/31 00:35:59;;;;;;;15.38;10.43;;;4.90;99.90;;;;;;5046129;28;19998;-79
2022/03/31 00:39:28;;;;;;;18.10;10.95;;;4.90;99.90;;;;;;5027555;28;20037;-80
2022/03/31 00:41:47;;;;;;;17.73;10.95;;;4.90;99.90;;;;;;5029043;28;20033;-79
2022/03/31 00:44:32;;;;;;;16.63;10.68;;;5.00;99.90;;;;;;5026731;28;20520;-80
2022/03/31 00:47:18;;;;;;;20.52;12.10;;;5.10;99.90;;;;;;5040206;28;20052;-76
2022/03/31 00:50:02;;;;;;;18.20;11.68;;;5.10;99.90;;;;;;5025707;28;20028;-80
2022/03/31 00:52:46;;;;;;;21.52;13.25;;;5.10;99.90;;;;;;5026017;28;20699;-78
2022/03/31 00:55:31;;;;;;;17.05;13.18;;;5.10;99.90;;;;;;5031776;28;20570;-80
2022/03/31 00:58:16;;;;;;;20.67;14.02;;;5.10;99.90;;;;;;5032647;28;20078;-80
2022/03/31 01:01:01;;;;;;;23.77;16.13;;;5.20;99.90;;;;;;5044636;28;20044;-80
2022/03/31 01:03:45;;;;;;;20.85;15.18;;;5.20;99.90;;;;;;5045958;28;20076;-77
2022/03/31 01:06:29;;;;;;;26.02;16.80;;;5.30;99.90;;;;;;5031487;28;20131;-78
2022/03/31 01:09:13;;;;;;;19.77;15.48;;;5.40;99.90;;;;;;5046136;28;20083;-79
2022/03/31 01:11:58;;;;;;;26.15;16.88;;;5.40;99.90;;;;;;5031672;28;20040;-80
2022/03/31 01:14:42;;;;;;;23.00;16.48;;;5.30;99.90;;;;;;5031392;28;20044;-81
2022/03/31 01:17:26;;;;;;;21.10;16.40;;;5.30;99.90;;;;;;5046792;28;20063;-79
2022/03/31 01:20:14;;;;;;;30.02;20.33;;;5.40;99.90;;;;;;5032067;28;20120;-80
2022/03/31 01:23:00;;;;;;;30.55;22.33;;;5.30;99.90;;;;;;5013867;28;20039;-78
2022/03/31 01:25:45;;;;;;;31.33;23.27;;;5.20;99.90;;;;;;5010661;28;20060;-79
2022/03/31 01:28:29;;;;;;;33.15;24.73;;;5.20;99.90;;;;;;5033011;28;20063;-79
2022/03/31 01:31:13;;;;;;;38.35;25.48;;;5.20;99.90;;;;;;5038934;28;20039;-81
2022/03/31 01:33:58;;;;;;;36.95;25.08;;;5.20;99.90;;;;;;5047251;28;20645;-79
2022/03/31 01:36:42;;;;;;;37.67;26.70;;;5.20;99.90;;;;;;5044526;28;20045;-77
2022/03/31 01:39:27;;;;;;;37.60;24.83;;;5.20;99.90;;;;;;5060949;28;20039;-81
2022/03/31 01:42:12;;;;;;;30.05;22.27;;;5.20;99.90;;;;;;5048778;28;20048;-80
2022/03/31 01:44:57;;;;;;;33.50;24.48;;;5.20;99.90;;;;;;5046608;28;20055;-77
2022/03/31 01:47:42;;;;;;;34.87;24.87;;;5.20;99.90;;;;;;5046192;28;20076;-84
2022/03/31 01:50:26;;;;;;;34.63;22.85;;;5.20;99.90;;;;;;5049315;28;20313;-79
2022/03/31 01:53:11;;;;;;;32.60;24.40;;;5.20;99.90;;;;;;5022602;28;20503;-77
2022/03/31 01:55:55;;;;;;;32.13;24.58;;;5.20;99.90;;;;;;5007177;28;20056;-78
2022/03/31 01:58:39;;;;;;;34.72;24.73;;;5.20;99.90;;;;;;5005804;28;20029;-78
2022/03/31 02:01:23;;;;;;;30.75;23.33;;;5.20;99.90;;;;;;5019866;28;20036;-77
2022/03/31 02:04:07;;;;;;;35.53;23.07;;;5.20;99.90;;;;;;5013806;28;20408;-81
2022/03/31 02:06:51;;;;;;;31.73;22.73;;;5.20;99.90;;;;;;5009135;28;20449;-77
2022/03/31 02:09:36;;;;;;;31.35;23.83;;;5.20;99.90;;;;;;5007805;28;20056;-77
2022/03/31 02:12:21;;;;;;;31.40;21.42;;;5.20;99.90;;;;;;5034830;28;20083;-78
2022/03/31 02:15:06;;;;;;;;;;;5.20;99.90;;;;;;5030260;28;20044;-78
2022/03/31 02:17:53;;;;;;;26.77;18.75;;;5.20;99.90;;;;;;5042995;28;19912;-78
2022/03/31 02:20:38;;;;;;;23.20;17.20;;;5.30;99.90;;;;;;5044121;28;20104;-82
2022/03/31 02:23:23;;;;;;;22.60;16.75;;;5.30;99.90;;;;;;5075768;28;20025;-78
2022/03/31 02:26:07;;;;;;;20.08;15.70;;;5.30;99.90;;;;;;5019343;28;20045;-80
2022/03/31 02:28:52;;;;;;;19.25;15.35;;;5.30;99.90;;;;;;5014194;28;20060;-80
2022/03/31 02:31:36;;;;;;;19.10;15.15;;;5.30;99.90;;;;;;4994282;28;20120;-79
2022/03/31 02:34:20;;;;;;;24.23;16.38;;;5.20;99.90;;;;;;5008919;28;20055;-79
2022/03/31 02:37:05;;;;;;;23.50;16.05;;;5.10;99.90;;;;;;4997895;28;20467;-79
2022/03/31 02:39:49;;;;;;;22.02;16.60;;;5.10;99.90;;;;;;5062396;28;20023;-77
2022/03/31 02:42:36;;;;;;;22.87;16.97;;;5.00;99.90;;;;;;5019841;28;20479;-77
2022/03/31 02:45:21;;;;;;;24.65;17.02;;;4.90;99.90;;;;;;4998611;28;20033;-78
2022/03/31 02:48:05;;;;;;;26.23;16.10;;;4.80;99.90;;;;;;4998725;28;20044;-78
2022/03/31 02:50:50;;;;;;;19.13;14.40;;;4.70;99.90;;;;;;5014577;28;20037;-78
2022/03/31 02:56:38;;;;;;;20.13;13.00;;;4.60;99.90;;;;;;5058324;28;20055;-79
2022/03/31 02:59:23;;;;;;;24.15;13.55;;;4.50;99.90;;;;;;5046661;28;20059;-81
2022/03/31 03:02:07;;;;;;;20.20;13.93;;;4.40;99.90;;;;;;5036681;28;20039;-76
2022/03/31 03:04:51;;;;;;;19.55;13.30;;;4.30;99.90;;;;;;5041715;28;20040;-83
2022/03/31 03:07:35;;;;;;;21.75;13.60;;;4.30;99.90;;;;;;5028103;28;20044;-82
2022/03/31 03:10:20;;;;;;;18.52;12.98;;;4.30;99.90;;;;;;5033591;28;20040;-80
2022/03/31 03:13:04;;;;;;;19.65;12.43;;;4.30;99.90;;;;;;5027690;28;20045;-82
2022/03/31 03:15:48;;;;;;;23.67;13.68;;;4.30;99.90;;;;;;5026892;28;20108;-78
2022/03/31 03:18:32;;;;;;;19.77;14.52;;;4.30;99.90;;;;;;5026050;28;20116;-79
2022/03/31 03:21:16;;;;;;;18.13;13.45;;;4.30;99.90;;;;;;5026484;28;20456;-80
2022/03/31 03:24:01;;;;;;;16.58;13.75;;;4.20;99.90;;;;;;5011947;28;20036;-80
2022/03/31 03:26:46;;;;;;;22.38;14.23;;;4.10;99.90;;;;;;5028719;28;20044;-80
2022/03/31 03:29:30;;;;;;;19.02;13.23;;;4.10;99.90;;;;;;5021481;28;20109;-79
2022/03/31 03:32:15;;;;;;;16.45;12.65;;;4.00;99.90;;;;;;5025069;28;20130;-79
2022/03/31 03:35:00;;;;;;;17.60;12.02;;;4.00;99.90;;;;;;4998576;28;20130;-80
2022/03/31 03:37:45;;;;;;;18.10;11.50;;;4.00;99.90;;;;;;5011078;28;20087;-80
2022/03/31 03:40:31;;;;;;;17.35;10.85;;;3.90;99.90;;;;;;5015102;28;20143;-79
2022/03/31 03:43:15;;;;;;;15.05;11.40;;;3.80;99.90;;;;;;5051240;28;20051;-77
2022/03/31 03:46:00;;;;;;;15.88;10.82;;;3.80;99.90;;;;;;5055461;28;20040;-78
2022/03/31 03:48:44;;;;;;;16.65;12.27;;;3.80;99.90;;;;;;5068510;28;20031;-80
2022/03/31 03:51:29;;;;;;;16.70;10.23;;;3.70;99.90;;;;;;5071173;28;20036;-79
2022/03/31 03:54:14;;;;;;;;;;;3.70;99.90;;;;;;5078328;28;20035;-74
2022/03/31 03:56:58;;;;;;;19.70;10.93;;;3.70;99.90;;;;;;5073106;28;19935;-79
2022/03/31 03:59:43;;;;;;;21.67;10.55;;;3.80;99.90;;;;;;5049241;28;20056;-79
2022/03/31 04:02:27;;;;;;;14.77;9.80;;;3.90;99.90;;;;;;5027938;28;20409;-79
2022/03/31 04:05:12;;;;;;;18.85;10.30;;;3.90;99.90;;;;;;5028553;28;20087;-80
2022/03/31 04:07:56;;;;;;;14.07;9.48;;;3.90;99.90;;;;;;5018201;28;20519;-79
2022/03/31 04:10:40;;;;;;;15.55;9.23;;;4.00;99.90;;;;;;5060505;28;20075;-78
2022/03/31 04:13:24;;;;;;;15.68;9.70;;;3.90;99.90;;;;;;5031375;28;20051;-78
2022/03/31 04:16:08;;;;;;;16.23;11.35;;;3.90;99.90;;;;;;5026435;28;20044;-79
2022/03/31 04:18:53;;;;;;;13.57;9.18;;;3.90;99.90;;;;;;5042989;28;20071;-78
2022/03/31 04:21:38;;;;;;;12.85;9.15;;;3.90;99.90;;;;;;5053992;28;20060;-79
2022/03/31 04:24:22;;;;;;;14.85;9.70;;;3.80;99.90;;;;;;5065723;28;20057;-77
2022/03/31 04:27:06;;;;;;;13.75;8.95;;;3.80;99.90;;;;;;5046452;28;20105;-76
2022/03/31 04:29:50;;;;;;;19.38;10.30;;;3.70;99.90;;;;;;5070920;28;20023;-78
2022/03/31 04:32:35;;;;;;;15.18;9.90;;;3.60;99.90;;;;;;5047406;28;20044;-77
2022/03/31 04:35:19;;;;;;;14.75;9.57;;;3.60;99.90;;;;;;5060823;28;20024;-77
2022/03/31 04:38:04;;;;;;;13.38;10.27;;;3.60;99.90;;;;;;5042728;28;20071;-78
2022/03/31 04:40:48;;;;;;;16.90;10.90;;;3.60;99.90;;;;;;5028499;28;20098;-79
2022/03/31 04:43:33;;;;;;;19.27;10.38;;;3.60;99.90;;;;;;5022940;28;20107;-79
2022/03/31 04:46:18;;;;;;;19.05;10.13;;;3.50;99.90;;;;;;5048657;28;20089;-78
2022/03/31 04:49:03;;;;;;;17.00;9.93;;;3.60;99.90;;;;;;5060009;28;20111;-78
2022/03/31 04:51:47;;;;;;;15.32;10.82;;;3.60;99.90;;;;;;5063943;28;20052;-79
2022/03/31 04:54:31;;;;;;;15.63;10.30;;;3.60;99.90;;;;;;5033425;28;20082;-80
2022/03/31 04:57:21;;;;;;;17.55;11.63;;;3.50;99.90;;;;;;5014915;28;20072;-81
2022/03/31 05:00:06;;;;;;;16.00;10.75;;;3.60;99.90;;;;;;5049638;28;20051;-79
2022/03/31 05:02:50;;;;;;;16.65;11.18;;;3.60;99.90;;;;;;5062474;28;20177;-82
2022/03/31 05:05:34;;;;;;;17.10;11.18;;;3.60;99.90;;;;;;5049467;28;20112;-78
2022/03/31 05:08:19;;;;;;;19.15;12.10;;;3.70;99.90;;;;;;5036842;28;20041;-79
2022/03/31 05:11:03;;;;;;;18.70;12.00;;;3.70;99.90;;;;;;5051229;28;20049;-78
2022/03/31 05:13:47;;;;;;;17.95;13.20;;;3.70;99.90;;;;;;5019514;28;20028;-77
2022/03/31 05:16:31;;;;;;;19.90;12.23;;;3.70;99.90;;;;;;5026163;28;20055;-78
2022/03/31 05:19:15;;;;;;;17.88;12.13;;;3.70;99.90;;;;;;5058836;28;20062;-76
2022/03/31 05:22:00;;;;;;;25.08;13.68;;;3.60;99.90;;;;;;5065229;28;20453;-78
2022/03/31 05:24:44;;;;;;;22.30;14.85;;;3.50;99.90;;;;;;5055413;28;20059;-78
2022/03/31 05:27:28;;;;;;;25.73;13.48;;;3.50;99.90;;;;;;5029283;28;20036;-79
2022/03/31 05:30:15;;;;;;;34.88;15.52;;;3.40;99.90;;;;;;5022408;28;20520;-77
2022/03/31 05:33:00;;;;;;;21.20;13.57;;;3.40;99.90;;;;;;5036007;28;20091;-77
2022/03/31 05:35:44;;;;;;;22.08;14.30;;;3.50;99.90;;;;;;5038713;28;20071;-76
2022/03/31 05:38:28;;;;;;;17.52;13.88;;;3.50;99.90;;;;;;5029896;28;20123;-78
2022/03/31 05:41:12;;;;;;;28.38;16.00;;;3.60;99.90;;;;;;5058824;28;20082;-77
2022/03/31 05:43:57;;;;;;;21.40;14.82;;;3.60;99.90;;;;;;5018881;28;20047;-79
2022/03/31 05:46:42;;;;;;;20.70;15.00;;;3.60;99.90;;;;;;5046955;28;20035;-80
2022/03/31 05:49:27;;;;;;;18.92;14.07;;;3.60;99.90;;;;;;5044931;28;20047;-79
2022/03/31 05:52:11;;;;;;;20.60;14.88;;;3.60;99.90;;;;;;5030703;28;20040;-81
2022/03/31 05:54:55;;;;;;;21.58;14.90;;;3.60;99.90;;;;;;5028796;28;20067;-81
2022/03/31 05:57:40;;;;;;;24.77;15.93;;;3.50;99.90;;;;;;5058677;28;20063;-80
2022/03/31 06:00:24;;;;;;;20.50;14.45;;;3.50;99.90;;;;;;5041027;28;20055;-81
2022/03/31 06:03:09;;;;;;;22.80;15.13;;;3.50;99.90;;;;;;5053487;28;20075;-80
2022/03/31 06:05:53;;;;;;;20.58;15.13;;;3.40;99.90;;;;;;5044762;28;20047;-79
2022/03/31 06:08:37;;;;;;;23.65;15.45;;;3.50;99.90;;;;;;5025987;28;20048;-81
2022/03/31 06:11:22;;;;;;;25.00;16.60;;;3.50;99.90;;;;;;5011060;28;20040;-77
2022/03/31 06:14:08;;;;;;;30.60;17.45;;;3.50;99.90;;;;;;5022456;28;20363;-76
2022/03/31 06:16:52;;;;;;;26.65;17.70;;;3.40;99.90;;;;;;5036911;28;20142;-77
2022/03/31 06:19:37;;;;;;;22.77;15.45;;;3.40;99.90;;;;;;5009777;28;20095;-78
2022/03/31 06:22:21;;;;;;;22.85;16.08;;;3.40;99.90;;;;;;5010068;28;20040;-77
2022/03/31 06:25:07;;;;;;;24.90;15.27;;;3.40;99.90;;;;;;5022989;28;20040;-78
2022/03/31 06:27:51;;;;;;;20.63;15.40;;;3.40;99.90;;;;;;5030851;28;20105;-78
2022/03/31 06:30:35;;;;;;;26.00;17.30;;;3.50;99.90;;;;;;5016701;28;20028;-76
2022/03/31 06:33:20;;;;;;;22.77;16.25;;;3.40;99.90;;;;;;5008709;28;20040;-78
2022/03/31 06:36:04;;;;;;;26.65;17.30;;;3.30;99.90;;;;;;5038077;28;20055;-80
2022/03/31 06:38:48;;;;;;;24.97;17.13;;;3.40;99.90;;;;;;5053051;28;20492;-78
2022/03/31 06:41:33;;;;;;;26.70;19.10;;;3.50;99.90;;;;;;5047703;28;20108;-78
2022/03/31 06:44:19;;;;;;;28.73;19.15;;;3.50;99.90;;;;;;5028930;28;20044;-78
2022/03/31 06:47:05;;;;;;;29.67;20.48;;;3.40;99.90;;;;;;5028302;28;20047;-80
2022/03/31 06:49:49;;;;;;;33.63;20.00;;;3.40;99.90;;;;;;5043006;28;20307;-79
2022/03/31 06:52:33;;;;;;;31.30;20.92;;;3.40;99.90;;;;;;5027995;28;20511;-79
2022/03/31 06:55:17;;;;;;;32.45;20.25;;;3.50;99.90;;;;;;5027977;28;20063;-78
2022/03/31 06:58:01;;;;;;;30.02;21.85;;;3.60;99.90;;;;;;5056440;28;20028;-77
2022/03/31 07:00:45;;;;;;;33.13;22.42;;;3.60;99.90;;;;;;5029185;28;20515;-78
2022/03/31 07:03:30;;;;;;;29.48;21.20;;;3.60;99.90;;;;;;5040575;28;20036;-78
2022/03/31 07:06:14;;;;;;;32.67;21.92;;;3.60;99.90;;;;;;5055327;28;20125;-77
2022/03/31 07:08:58;;;;;;;40.38;23.45;;;3.60;99.90;;;;;;5027627;28;20102;-79
2022/03/31 07:11:43;;;;;;;29.00;21.92;;;3.60;99.90;;;;;;5027827;28;20495;-77
2022/03/31 07:14:28;;;;;;;31.50;22.35;;;3.60;99.90;;;;;;5024148;28;20049;-77
2022/03/31 07:17:12;;;;;;;32.70;21.83;;;3.60;99.90;;;;;;5031484;28;20044;-77
2022/03/31 07:19:57;;;;;;;35.03;23.02;;;3.50;99.90;;;;;;5036693;28;20039;-79
2022/03/31 07:22:45;;;;;;;32.75;20.70;;;3.50;99.90;;;;;;5039991;28;20052;-77
2022/03/31 07:25:29;;;;;;;28.30;20.30;;;3.60;99.90;;;;;;5029992;28;20126;-77
2022/03/31 07:28:14;;;;;;;32.67;22.67;;;3.60;99.90;;;;;;5024207;28;20048;-79
2022/03/31 07:30:58;;;;;;;29.92;21.35;;;3.60;99.90;;;;;;5030314;28;20141;-80
2022/03/31 07:33:42;;;;;;;31.15;21.65;;;3.70;99.90;;;;;;5060333;28;20083;-79
2022/03/31 07:36:27;;;;;;;35.10;21.80;;;3.70;99.90;;;;;;5042584;28;20040;-80
2022/03/31 07:39:11;;;;;;;31.25;21.95;;;3.70;99.90;;;;;;5027824;28;20048;-78
2022/03/31 07:41:55;;;;;;;31.80;21.00;;;3.70;99.90;;;;;;5021521;28;20061;-79
2022/03/31 07:44:40;;;;;;;30.00;22.13;;;3.70;99.90;;;;;;5009202;28;20134;-79
2022/03/31 07:47:24;;;;;;;37.38;21.83;;;3.80;99.90;;;;;;5041895;28;20027;-80
2022/03/31 07:50:10;;;;;;;33.58;22.83;;;3.70;99.90;;;;;;5027354;28;20057;-79
2022/03/31 07:52:55;;;;;;;35.13;21.80;;;3.80;99.90;;;;;;5022310;28;20082;-80
2022/03/31 07:55:39;;;;;;;;;;;4.00;99.90;;;;;;5050557;28;20094;-80
2022/03/31 07:58:23;;;;;;;32.13;21.48;;;4.10;99.90;;;;;;5039409;28;19958;-79
2022/03/31 08:01:08;;;;;;;31.38;22.05;;;4.20;99.90;;;;;;5027364;28;20040;-79
2022/03/31 08:03:53;;;;;;;29.13;21.67;;;4.20;99.90;;;;;;5041133;28;20051;-78
2022/03/31 08:06:37;;;;;;;;;;;4.30;99.90;;;;;;5042443;28;20039;-76
2022/03/31 08:09:21;;;;;;;27.42;21.67;;;4.40;99.90;;;;;;5028315;28;19916;-78
2022/03/31 08:12:07;;;;;;;27.33;20.92;;;4.30;99.90;;;;;;5041657;28;20043;-79
2022/03/31 08:14:51;;;;;;;25.92;19.83;;;4.20;99.90;;;;;;5011367;28;20558;-76
2022/03/31 08:17:37;;;;;;;28.03;21.57;;;4.20;99.90;;;;;;5026268;28;20116;-80
2022/03/31 08:20:22;;;;;;;27.95;20.13;;;4.30;99.90;;;;;;5028365;28;20036;-77
2022/03/31 08:23:06;;;;;;;30.83;20.88;;;4.40;99.90;;;;;;5026778;28;20097;-77
2022/03/31 08:25:51;;;;;;;27.02;20.23;;;4.40;99.90;;;;;;5025671;28;20048;-79
2022/03/31 08:28:36;;;;;;;29.27;20.27;;;4.50;99.90;;;;;;5022241;28;20040;-79
2022/03/31 08:31:20;;;;;;;;;;;4.50;99.80;;;;;;5021405;28;20060;-78
2022/03/31 08:34:06;;;;;;;24.60;17.92;;;4.60;99.40;;;;;;5026488;28;19931;-78
2022/03/31 08:36:50;;;;;;;29.00;19.42;;;4.40;99.40;;;;;;5039430;28;20064;-78
2022/03/31 08:39:35;;;;;;;25.58;19.60;;;4.30;99.50;;;;;;5012906;28;20118;-78
2022/03/31 08:42:19;;;;;;;22.02;17.33;;;4.40;99.40;;;;;;5014040;28;20044;-79
2022/03/31 08:45:04;;;;;;;31.58;19.02;;;4.50;99.30;;;;;;4997488;28;20047;-78
2022/03/31 08:47:50;;;;;;;23.90;17.75;;;4.70;99.10;;;;;;5041144;28;20404;-78
2022/03/31 08:50:35;;;;;;;29.13;19.10;;;4.90;98.40;;;;;;5043172;28;20139;-79
2022/03/31 08:53:20;;;;;;;25.33;18.65;;;4.90;98.20;;;;;;5043219;28;20036;-80
2022/03/31 08:56:05;;;;;;;23.17;18.52;;;4.90;98.20;;;;;;5029029;28;20576;-77
2022/03/31 08:58:49;;;;;;;;;;;5.00;98.10;;;;;;5043126;28;20059;-80
2022/03/31 09:01:39;;;;;;;27.67;19.30;;;5.00;97.90;;;;;;5028682;28;19915;-79
2022/03/31 09:04:24;;;;;;;27.55;18.52;;;5.30;97.30;;;;;;5039845;28;20471;-79
2022/03/31 09:07:08;;;;;;;;;;;5.40;97.20;;;;;;5026254;28;20511;-77
2022/03/31 09:10:00;;;;;;;22.88;17.17;;;5.30;97.00;;;;;;5027728;28;20007;-81
2022/03/31 09:12:45;;;;;;;23.85;18.30;;;5.30;97.00;;;;;;5043932;28;20101;-77
2022/03/31 09:15:29;;;;;;;23.48;17.55;;;5.20;97.00;;;;;;5010946;28;20037;-77
2022/03/31 09:18:20;;;;;;;22.33;16.38;;;5.40;96.70;;;;;;5008505;28;20033;-79
2022/03/31 09:21:09;;;;;;;24.58;17.67;;;5.50;96.80;;;;;;5071451;28;20144;-76
2022/03/31 09:23:53;;;;;;;26.48;16.60;;;5.60;96.50;;;;;;5039942;28;20158;-76
2022/03/31 09:26:53;;;;;;;21.80;16.05;;;5.70;96.30;;;;;;5039203;28;20098;-79
2022/03/31 09:29:38;;;;;;;21.35;16.60;;;5.60;96.40;;;;;;5026200;28;20113;-78
2022/03/31 09:32:22;;;;;;;18.67;16.40;;;5.80;96.20;;;;;;5039931;28;20059;-78
2022/03/31 09:35:07;;;;;;;29.48;18.50;;;5.70;95.70;;;;;;5055561;28;20040;-78
2022/03/31 09:37:54;;;;;;;24.10;16.73;;;5.50;96.20;;;;;;5043091;28;20052;-79
2022/03/31 09:40:39;;;;;;;21.20;16.48;;;5.50;96.40;;;;;;5062958;28;20032;-79
2022/03/31 09:43:26;;;;;;;45.40;18.42;;;5.80;99.50;;;;;;5025013;28;20040;-79
2022/03/31 09:46:38;;;;;;;20.90;15.65;;;6.30;97.80;;;;;;5029958;28;20052;-80
2022/03/31 09:49:37;;;;;;;25.13;16.45;;;6.60;96.10;;;;;;5043420;28;20032;-78
2022/03/31 09:52:41;;;;;;;23.33;15.98;;;6.90;96.70;;;;;;5046785;28;20028;-78
2022/03/31 09:55:43;;;;;;;24.83;16.73;;;7.20;94.80;;;;;;5032265;28;20036;-78
2022/03/31 09:58:43;;;;;;;21.00;16.00;;;6.90;94.60;;;;;;5041047;28;20029;-78
2022/03/31 10:01:37;;;;;;;20.27;13.85;;;7.00;94.80;;;;;;5044064;28;20039;-79
2022/03/31 10:04:28;;;;;;;19.02;14.75;;;7.00;94.20;;;;;;5024631;28;20440;-79
2022/03/31 10:07:14;;;;;;;18.20;13.93;;;7.00;93.20;;;;;;5033012;28;20039;-78
2022/03/31 10:09:58;;;;;;;;;;;6.50;93.40;;;;;;5041604;28;20028;-78
2022/03/31 10:12:53;;;;;;;17.92;14.40;;;6.10;94.50;;;;;;5045692;28;19911;-77
2022/03/31 10:15:40;;;;;;;16.73;14.30;;;5.90;94.80;;;;;;5027438;28;20568;-79
2022/03/31 10:18:25;;;;;;;19.83;15.20;;;5.80;94.80;;;;;;5008141;28;20405;-78
2022/03/31 10:21:09;;;;;;;20.55;14.35;;;5.70;95.20;;;;;;5037831;28;20064;-78
2022/03/31 10:27:01;;;;;;;18.17;13.85;;;5.60;95.20;;;;;;5045756;28;20610;-78
2022/03/31 10:30:29;;;;;;;20.25;14.43;;;5.60;95.10;;;;;;5031193;28;20056;-78
2022/03/31 10:33:14;;;;;;;16.88;13.88;;;5.60;95.30;;;;;;5035068;28;20091;-79
2022/03/31 10:36:10;;;;;;;;;;;5.70;95.30;;;;;;5043309;28;20146;-81
2022/03/31 10:39:21;;;;;;;18.10;14.10;;;5.90;94.80;;;;;;5043082;28;19966;-78
2022/03/31 10:42:08;;;;;;;18.90;13.73;;;5.80;94.90;;;;;;5034878;28;20032;-80
2022/03/31 10:45:54;;;;;;;18.45;13.98;;;5.80;94.70;;;;;;5040983;28;20062;-78
2022/03/31 10:48:38;;;;;;;19.13;13.32;;;5.70;94.80;;;;;;5056055;28;20075;-79
2022/03/31 10:55:05;;;;;;;37.13;14.68;;;5.50;94.80;;;;;;5039972;28;20036;-80
2022/03/31 10:57:49;;;;;;;21.17;13.70;;;5.50;95.10;;;;;;5023476;28;20194;-81
2022/03/31 11:00:34;;;;;;;16.75;13.18;;;5.50;94.90;;;;;;4998451;28;20033;-79
2022/03/31 11:03:22;;;;;;;20.05;14.13;;;5.40;95.00;;;;;;5007554;28;20535;-78
2022/03/31 11:06:11;;;;;;;24.75;13.95;;;5.40;95.10;;;;;;5049064;28;20593;-80
2022/03/31 11:08:55;;;;;;;17.00;12.48;;;5.50;95.00;;;;;;5030916;28;20064;-77
2022/03/31 11:11:40;;;;;;;17.48;12.80;;;5.50;94.90;;;;;;5040022;28;20044;-79
2022/03/31 11:14:25;;;;;;;20.27;12.98;;;5.40;94.80;;;;;;5045129;28;20071;-78
2022/03/31 11:17:18;;;;;;;17.60;13.10;;;5.40;94.90;;;;;;5044815;28;20032;-78
2022/03/31 11:20:16;;;;;;;17.45;12.25;;;5.50;94.90;;;;;;5044521;28;20035;-80
2022/03/31 11:23:03;;;;;;;15.20;11.70;;;5.60;94.70;;;;;;5044837;28;20078;-78
2022/03/31 11:25:47;;;;;;;16.88;11.82;;;5.60;94.70;;;;;;5043273;28;20117;-78
2022/03/31 11:28:32;;;;;;;22.55;13.00;;;5.60;94.70;;;;;;5060715;28;20032;-77
2022/03/31 11:31:17;;;;;;;17.10;12.55;;;5.60;94.40;;;;;;5011560;28;20524;-77
2022/03/31 11:34:01;;;;;;;21.02;13.20;;;5.50;94.40;;;;;;5011917;28;20090;-79
2022/03/31 11:36:46;;;;;;;16.35;11.68;;;5.40;94.50;;;;;;5024361;28;20060;-81
2022/03/31 11:39:30;;;;;;;18.92;12.40;;;5.40;94.50;;;;;;5044689;28;20043;-78
2022/03/31 11:42:16;;;;;;;22.85;13.88;;;5.40;94.60;;;;;;5032414;28;20137;-79
2022/03/31 11:45:00;;;;;;;18.70;13.05;;;5.60;94.60;;;;;;5024479;28;20044;-79
2022/03/31 11:47:55;;;;;;;21.73;13.70;;;5.60;94.30;;;;;;5037252;28;20082;-80
2022/03/31 11:50:56;;;;;;;17.92;13.15;;;5.60;94.50;;;;;;5055475;28;20131;-79
2022/03/31 11:53:43;;;;;;;18.77;14.68;;;5.60;94.30;;;;;;5061372;28;20039;-79
2022/03/31 11:56:28;;;;;;;20.45;14.55;;;5.60;94.20;;;;;;5044312;28;20079;-80
2022/03/31 11:59:15;;;;;;;20.42;14.50;;;5.60;94.40;;;;;;5046956;28;20036;-81
2022/03/31 12:01:59;;;;;;;27.30;14.73;;;5.70;94.20;;;;;;5046734;28;20174;-79
2022/03/31 12:04:50;;;;;;;18.40;14.52;;;5.70;94.10;;;;;;5044306;28;20071;-78
2022/03/31 12:07:38;;;;;;;16.90;13.77;;;5.80;94.00;;;;;;5044728;28;20032;-78
2022/03/31 12:10:22;;;;;;;22.10;15.35;;;5.80;93.90;;;;;;5042626;28;20074;-79
2022/03/31 12:13:07;;;;;;;20.05;14.35;;;5.80;93.90;;;;;;5024643;28;20045;-78
2022/03/31 12:16:06;;;;;;;23.20;15.60;;;5.90;93.90;;;;;;5023728;28;20544;-79
2022/03/31 12:18:59;;;;;;;24.13;15.90;;;6.00;93.90;;;;;;5042288;28;20167;-77
2022/03/31 12:21:46;;;;;;;27.40;15.38;;;6.20;93.50;;;;;;5029873;28;20090;-81
2022/03/31 12:24:30;;;;;;;31.33;16.80;;;6.10;93.70;;;;;;5030816;28;20040;-79
2022/03/31 12:27:16;;;;;;;24.40;15.73;;;6.00;93.80;;;;;;5058647;28;20086;-78
2022/03/31 12:30:04;;;;;;;21.08;15.95;;;6.20;93.70;;;;;;4997213;28;20180;-76
2022/03/31 12:32:49;;;;;;;24.23;16.33;;;6.30;93.40;;;;;;5016163;28;20109;-79
2022/03/31 12:35:33;;;;;;;24.90;18.73;;;6.10;93.20;;;;;;5022915;28;20405;-77
2022/03/31 12:38:18;;;;;;;25.42;17.70;;;6.00;93.60;;;;;;5022616;28;20404;-78
2022/03/31 12:41:20;;;;;;;25.65;17.92;;;5.90;93.80;;;;;;5024978;28;20112;-78
2022/03/31 12:44:10;;;;;;;23.95;17.42;;;6.00;93.90;;;;;;5023151;28;20040;-77
2022/03/31 12:46:58;;;;;;;25.83;17.80;;;5.80;93.80;;;;;;5014308;28;20079;-77
2022/03/31 12:49:43;;;;;;;25.73;18.50;;;5.80;93.80;;;;;;5056073;28;20025;-77
2022/03/31 12:52:28;;;;;;;26.60;18.80;;;5.80;93.80;;;;;;5028397;28;20174;-77
2022/03/31 12:55:12;;;;;;;23.30;18.38;;;5.80;94.00;;;;;;5029000;28;20060;-77
2022/03/31 12:57:59;;;;;;;25.95;18.08;;;5.70;94.00;;;;;;5026498;28;20097;-76
2022/03/31 13:00:52;;;;;;;24.63;18.13;;;5.80;93.80;;;;;;5020201;28;20060;-77
2022/03/31 13:03:36;;;;;;;24.52;18.67;;;5.80;93.90;;;;;;5037782;28;20036;-80
2022/03/31 13:06:20;;;;;;;26.60;19.30;;;5.70;94.00;;;;;;5025569;28;20071;-77
2022/03/31 13:09:05;;;;;;;24.80;19.58;;;5.70;94.20;;;;;;5051330;28;20078;-77
2022/03/31 13:11:52;;;;;;;25.27;19.38;;;5.80;94.10;;;;;;5042995;28;20122;-77
2022/03/31 13:14:40;;;;;;;27.73;21.25;;;5.70;94.10;;;;;;5028594;28;20066;-77
2022/03/31 13:17:24;;;;;;;27.90;20.63;;;5.70;94.00;;;;;;5042248;28;20036;-77
2022/03/31 13:20:10;;;;;;;26.50;21.02;;;5.70;94.20;;;;;;5010156;28;20035;-76
2022/03/31 13:22:59;;;;;;;30.88;20.92;;;5.80;94.10;;;;;;5021380;28;20132;-78
2022/03/31 13:25:46;;;;;;;29.23;20.45;;;5.80;94.00;;;;;;5037333;28;20037;-75
2022/03/31 13:28:31;;;;;;;29.88;18.98;;;5.90;94.80;;;;;;5013142;28;20028;-77
2022/03/31 13:31:18;;;;;;;;;;;6.10;96.10;;;;;;5041618;28;20044;-78
2022/03/31 13:34:02;;;;;;;46.30;23.55;;;6.10;93.60;;;;;;5033276;28;20371;-77
2022/03/31 13:37:01;;;;;;;34.58;24.83;;;5.90;93.60;;;;;;5022622;28;20451;-79
2022/03/31 13:39:47;;;;;;;33.15;22.00;;;5.80;94.00;;;;;;5031458;28;20063;-76
2022/03/31 13:42:31;;;;;;;32.40;21.65;;;5.80;93.80;;;;;;5027286;28;20488;-77
2022/03/31 13:45:20;;;;;;;30.35;21.40;;;5.90;93.70;;;;;;5033132;28;20566;-78
2022/03/31 13:48:05;;;;;;;26.65;19.95;;;5.80;93.80;;;;;;5043685;28;20023;-77
2022/03/31 13:50:54;;;;;;;26.33;20.27;;;5.70;94.00;;;;;;5022315;28;20053;-78
2022/03/31 13:53:44;;;;;;;36.00;22.38;;;5.70;94.00;;;;;;5022903;28;20036;-77
2022/03/31 13:56:33;;;;;;;25.33;20.95;;;5.70;94.10;;;;;;5023624;28;20048;-77
2022/03/31 14:02:23;;;;;;;26.88;21.90;;;5.70;94.10;;;;;;5057020;28;20105;-75
2022/03/31 14:05:08;;;;;;;32.53;22.67;;;5.60;94.10;;;;;;5013616;28;20146;-76
2022/03/31 14:07:56;;;;;;;29.25;22.15;;;5.60;94.10;;;;;;5040234;28;20079;-76
2022/03/31 14:10:40;;;;;;;31.98;23.17;;;5.50;94.50;;;;;;5027808;28;20059;-76
2022/03/31 14:13:24;;;;;;;30.70;24.00;;;5.50;94.20;;;;;;5056879;28;20555;-76
2022/03/31 14:16:12;;;;;;;33.53;24.43;;;5.30;94.30;;;;;;5046185;28;20048;-78
2022/03/31 14:18:58;;;;;;;33.13;23.67;;;5.20;94.70;;;;;;5041467;28;20473;-79
2022/03/31 14:21:45;;;;;;;33.60;23.35;;;5.20;94.80;;;;;;5014428;28;20056;-78
2022/03/31 14:24:30;;;;;;;32.10;23.90;;;5.30;94.70;;;;;;5007593;28;20076;-77
2022/03/31 14:27:16;;;;;;;31.60;24.55;;;5.20;94.80;;;;;;5048010;28;20039;-77
2022/03/31 14:30:04;;;;;;;38.90;24.30;;;5.10;95.00;;;;;;5031713;28;20032;-76